Time;durP1;ratioP1;P1;durP2;ratioP2;P2;SDS_P1;SDS_P2;PMS_P1;PMS_P2;Temp;Humidity;BMP_temperature;BMP_pressure;BME280_temperature;BME280_humidity;BME280_pressure;Samples;Min_cycle;Max_cycle;Signal;HPM_P1;HPM_P2
2022/11/24 00:03:28;;;;;;;7.33;6.00;;;;;;;9.18;65.42;97055.69;8316953;28;20251;-74
2022/11/24 00:07:31;;;;;;;6.77;5.60;;;;;;;9.06;66.20;97051.16;8316541;28;20227;-74
2022/11/24 00:11:35;;;;;;;5.40;4.67;;;;;;;8.96;67.01;97058.56;8316545;28;20292;-74
2022/11/24 00:15:38;;;;;;;6.13;4.00;;;;;;;8.97;67.85;97059.41;8316414;28;20234;-74
2022/11/24 00:19:42;;;;;;;4.40;3.83;;;;;;;9.08;68.40;97064.84;8316735;28;20503;-74
2022/11/24 00:23:46;;;;;;;4.20;3.43;;;;;;;9.05;69.13;97075.34;8316225;28;20224;-73
2022/11/24 00:27:48;;;;;;;5.47;3.87;;;;;;;9.04;69.57;97080.56;8315211;28;20242;-74
2022/11/24 00:31:51;;;;;;;5.60;3.77;;;;;;;9.17;69.62;97090.16;8315979;28;20229;-74
2022/11/24 00:35:56;;;;;;;6.40;4.10;;;;;;;9.03;70.24;97094.41;8315474;28;20386;-74
2022/11/24 00:39:59;;;;;;;6.27;3.57;;;;;;;9.14;69.71;97100.69;8315732;28;20243;-74
2022/11/24 00:44:02;;;;;;;7.17;3.30;;;;;;;9.22;69.89;97102.88;8315500;28;20267;-74
2022/11/24 00:48:05;;;;;;;4.03;3.67;;;;;;;9.43;68.85;97105.22;8315577;28;20247;-76
2022/11/24 00:52:09;;;;;;;6.00;3.80;;;;;;;9.39;69.42;97112.31;8315524;28;20407;-77
2022/11/24 00:56:12;;;;;;;5.83;3.17;;;;;;;9.56;68.71;97117.41;8315215;28;20240;-78
2022/11/24 01:00:15;;;;;;;4.17;3.03;;;;;;;9.62;68.36;97128.34;8315222;28;20247;-78
2022/11/24 01:04:18;;;;;;;4.20;3.47;;;;;;;9.63;68.43;97128.22;8315378;28;20452;-78
2022/11/24 01:08:22;;;;;;;4.97;3.10;;;;;;;9.69;68.03;97140.00;8315102;28;20237;-78
2022/11/24 01:12:25;;;;;;;7.20;3.50;;;;;;;9.63;68.45;97138.56;8314780;28;20252;-78
2022/11/24 01:16:29;;;;;;;6.33;3.10;;;;;;;9.62;68.38;97142.09;8314933;28;20286;-79
2022/11/24 01:20:32;;;;;;;7.10;3.30;;;;;;;9.60;68.66;97143.94;8314736;28;20229;-78
2022/11/24 01:24:36;;;;;;;7.20;3.30;;;;;;;9.74;67.98;97143.19;8314584;28;20227;-78
2022/11/24 01:28:39;;;;;;;10.20;3.23;;;;;;;9.74;68.05;97150.94;8314747;28;20223;-79
2022/11/24 01:32:48;;;;;;;6.83;2.97;;;;;;;9.81;68.05;97154.88;8314467;28;20298;-78
2022/11/24 01:36:51;;;;;;;5.67;3.10;;;;;;;9.81;67.65;97159.22;8314298;28;20544;-78
2022/11/24 01:41:02;;;;;;;7.63;3.47;;;;;;;9.80;67.77;97158.34;8312988;28;20228;-78
2022/11/24 01:45:40;;;;;;;7.53;2.80;;;;;;;9.86;67.69;97170.97;8314180;28;20239;-78
2022/11/24 01:49:46;;;;;;;9.30;3.10;;;;;;;9.87;67.73;97174.38;8182574;29;20241;-78
2022/11/24 01:53:53;;;;;;;7.10;2.70;;;;;;;9.74;67.78;97156.94;8245105;28;20313;-78
2022/11/24 01:58:01;;;;;;;7.10;2.93;;;;;;;9.96;67.18;97179.06;8313617;28;20237;-78
2022/11/24 02:02:04;;;;;;;7.87;3.17;;;;;;;9.92;67.74;97182.75;8313885;28;20243;-78
2022/11/24 02:06:09;;;;;;;7.30;3.00;;;;;;;9.93;67.78;97182.63;8313940;28;20292;-79
2022/11/24 02:10:13;;;;;;;10.50;2.87;;;;;;;9.95;67.45;97193.72;8313617;28;20250;-79
2022/11/24 02:14:19;;;;;;;6.77;2.30;;;;;;;9.92;67.70;97195.69;8313668;28;20330;-78
2022/11/24 02:18:22;;;;;;;10.70;2.50;;;;;;;9.93;68.04;97203.31;8313895;28;20397;-79
2022/11/24 02:22:30;;;;;;;11.50;2.87;;;;;;;9.90;68.01;97200.06;8313777;28;20413;-79
2022/11/24 02:26:40;;;;;;;8.57;2.57;;;;;;;9.91;67.83;97194.00;8313696;28;20252;-78
2022/11/24 02:30:43;;;;;;;9.70;2.60;;;;;;;9.88;67.81;97196.72;8313833;28;20545;-79
2022/11/24 02:34:46;;;;;;;9.23;2.40;;;;;;;9.92;67.99;97198.25;8313476;28;20240;-79
2022/11/24 02:38:49;;;;;;;8.83;2.50;;;;;;;9.86;67.96;97190.81;8313481;28;20280;-78
2022/11/24 02:42:55;;;;;;;9.53;2.53;;;;;;;10.00;67.78;97203.84;8313352;28;20236;-78
2022/11/24 02:47:05;;;;;;;12.47;2.70;;;;;;;9.87;67.96;97184.72;8313003;28;20239;-78
2022/11/24 02:51:08;;;;;;;11.27;2.63;;;;;;;10.04;67.51;97207.09;8314204;28;20279;-78
2022/11/24 02:55:11;;;;;;;10.60;2.73;;;;;;;9.84;68.53;97215.91;8318918;28;20234;-78
2022/11/24 02:59:15;;;;;;;12.80;2.60;;;;;;;9.92;68.86;97214.59;8319061;28;20245;-78
2022/11/24 03:03:17;;;;;;;8.97;2.33;;;;;;;10.00;67.98;97218.53;8318979;28;20466;-78
2022/11/24 03:07:20;;;;;;;6.17;2.50;;;;;;;10.04;68.36;97227.81;8318763;28;20224;-78
2022/11/24 03:11:23;;;;;;;10.70;2.63;;;;;;;10.06;68.52;97229.38;8318524;28;20289;-78
2022/11/24 03:15:27;;;;;;;9.80;2.60;;;;;;;10.09;68.09;97233.53;8318539;28;20238;-78
2022/11/24 03:19:30;;;;;;;12.67;2.50;;;;;;;10.12;68.38;97236.81;8318452;28;20226;-78
2022/11/24 03:23:32;;;;;;;13.23;2.90;;;;;;;10.08;68.71;97240.47;8318281;28;20612;-79
2022/11/24 03:27:35;;;;;;;12.17;2.90;;;;;;;10.02;69.01;97242.56;8318079;28;20237;-79
2022/11/24 03:31:39;;;;;;;13.17;2.67;;;;;;;9.95;69.21;97236.88;8318061;28;20225;-80
2022/11/24 03:35:42;;;;;;;11.23;2.30;;;;;;;10.03;68.94;97246.81;8317808;28;20465;-79
2022/11/24 03:39:45;;;;;;;12.93;2.97;;;;;;;10.09;69.00;97241.28;8317761;28;20239;-79
2022/11/24 03:43:48;;;;;;;9.90;2.80;;;;;;;10.04;68.98;97249.31;8317413;28;20240;-78
2022/11/24 03:47:52;;;;;;;10.00;2.77;;;;;;;10.03;69.23;97251.97;8317459;28;20260;-78
2022/11/24 03:51:54;;;;;;;9.73;2.70;;;;;;;10.02;69.51;97258.09;8317048;28;20572;-78
2022/11/24 03:55:57;;;;;;;14.37;2.80;;;;;;;9.92;69.37;97255.16;8317207;28;20236;-77
2022/11/24 04:00:00;;;;;;;12.77;2.93;;;;;;;9.98;69.54;97249.66;8317427;28;20509;-78
2022/11/24 04:04:04;;;;;;;12.83;2.87;;;;;;;9.92;70.12;97263.75;8315927;28;20252;-79
2022/11/24 04:08:07;;;;;;;11.60;2.53;;;;;;;9.97;69.55;97272.06;8316919;28;20322;-78
2022/11/24 04:16:30;;;;;;;14.20;2.80;;;;;;;10.05;69.69;97278.59;8316729;28;20242;-78
2022/11/24 04:20:35;;;;;;;8.17;2.60;;;;;;;10.14;69.17;97280.72;8316581;28;20236;-79
2022/11/24 04:24:38;;;;;;;9.03;3.17;;;;;;;10.03;69.70;97283.84;8316533;28;20230;-78
2022/11/24 04:28:41;;;;;;;11.83;3.10;;;;;;;10.16;69.35;97287.47;8316205;28;20237;-79
2022/11/24 04:32:43;;;;;;;13.23;3.03;;;;;;;10.14;69.16;97296.22;8316211;28;20300;-80
2022/11/24 04:36:47;;;;;;;15.90;3.10;;;;;;;10.00;70.04;97296.13;8316086;28;20235;-80
2022/11/24 04:40:50;;;;;;;12.90;3.30;;;;;;;10.23;69.26;97308.69;8315935;28;20540;-78
2022/11/24 04:44:53;;;;;;;12.83;3.20;;;;;;;10.21;69.27;97307.94;8315512;28;20256;-78
2022/11/24 04:48:55;;;;;;;16.63;3.10;;;;;;;10.09;69.59;97301.66;8315599;28;20267;-78
2022/11/24 04:53:00;;;;;;;13.83;3.03;;;;;;;10.22;69.36;97326.88;8315588;28;20232;-78
2022/11/24 04:57:02;;;;;;;14.23;3.00;;;;;;;10.06;69.39;97316.50;8315369;28;20233;-78
2022/11/24 05:01:08;;;;;;;14.40;3.37;;;;;;;10.30;69.31;97343.72;8315140;28;20272;-78
2022/11/24 05:05:10;;;;;;;16.10;3.00;;;;;;;10.25;68.59;97355.19;8315111;28;20244;-78
2022/11/24 05:09:15;;;;;;;11.37;2.90;;;;;;;10.10;68.43;97316.25;8314902;28;20533;-78
2022/11/24 05:13:18;;;;;;;15.07;3.00;;;;;;;10.26;68.53;97347.34;8315219;28;20239;-78
2022/11/24 05:17:21;;;;;;;14.37;2.80;;;;;;;10.26;68.03;97341.31;8314792;28;20272;-78
2022/11/24 05:21:23;;;;;;;12.77;3.37;;;;;;;10.42;67.37;97349.97;8314879;28;20230;-78
2022/11/24 05:25:27;;;;;;;10.30;2.90;;;;;;;10.37;68.02;97352.78;8314943;28;20246;-78
2022/11/24 05:29:30;;;;;;;8.13;2.70;;;;;;;10.37;67.70;97357.13;8314722;28;20222;-78
2022/11/24 05:33:33;;;;;;;12.37;3.13;;;;;;;10.42;67.59;97357.75;8314543;28;20240;-79
2022/11/24 05:37:36;;;;;;;13.80;2.53;;;;;;;10.44;67.34;97355.06;8314624;28;20226;-79
2022/11/24 05:41:41;;;;;;;12.30;2.60;;;;;;;10.37;66.99;97370.09;8314508;28;20375;-79
2022/11/24 05:45:46;;;;;;;13.17;2.87;;;;;;;10.41;66.90;97368.16;8313976;28;20238;-79
2022/11/24 05:49:49;;;;;;;12.37;2.70;;;;;;;10.39;66.85;97385.53;8314271;28;20230;-79
2022/11/24 05:53:51;;;;;;;10.90;2.63;;;;;;;10.35;66.00;97383.09;8313788;28;20253;-77
2022/11/24 05:57:59;;;;;;;12.77;2.57;;;;;;;10.40;66.07;97367.34;8313662;28;20308;-78
2022/11/24 06:02:02;;;;;;;13.93;3.03;;;;;;;10.22;66.36;97388.97;8314026;28;20538;-78
2022/11/24 06:06:05;;;;;;;15.40;3.23;;;;;;;10.33;65.95;97391.88;8313843;28;20241;-78
2022/11/24 06:10:09;;;;;;;13.63;2.77;;;;;;;10.37;66.32;97398.56;8313896;28;20230;-77
2022/11/24 06:14:13;;;;;;;12.50;2.53;;;;;;;10.34;66.03;97386.63;8313289;28;20356;-78
2022/11/24 06:18:16;;;;;;;13.43;2.83;;;;;;;10.31;65.83;97384.19;8313485;28;20237;-75
2022/11/24 06:22:19;;;;;;;13.77;2.80;;;;;;;10.20;65.98;97383.03;8315236;28;20230;-76
2022/11/24 06:26:21;;;;;;;15.73;2.70;;;;;;;10.40;65.62;97389.81;8315288;28;20233;-75
2022/11/24 06:30:26;;;;;;;10.03;2.80;;;;;;;10.40;65.92;97392.41;8319895;28;20233;-76
2022/11/24 06:34:28;;;;;;;18.00;3.40;;;;;;;10.42;65.90;97390.56;8319821;28;20233;-77
2022/11/24 06:38:31;;;;;;;12.47;3.63;;;;;;;10.41;65.37;97397.47;8319519;28;20226;-78
2022/11/24 06:42:34;;;;;;;13.57;3.20;;;;;;;10.41;65.53;97407.00;8319060;28;20237;-76
2022/11/24 06:46:38;;;;;;;11.30;3.03;;;;;;;10.48;64.92;97396.25;8319640;28;20233;-78
2022/11/24 06:50:41;;;;;;;13.33;4.43;;;;;;;10.24;65.17;97395.72;8319340;28;20230;-76
2022/11/24 06:54:44;;;;;;;15.03;4.53;;;;;;;10.42;65.23;97409.50;8319266;28;20230;-76
2022/11/24 06:58:47;;;;;;;14.73;3.57;;;;;;;10.39;65.52;97403.66;8319124;28;20428;-76
2022/11/24 07:02:51;;;;;;;11.17;3.20;;;;;;;10.45;65.52;97416.28;8318946;28;20287;-77
2022/11/24 07:06:54;;;;;;;9.73;2.70;;;;;;;10.41;65.67;97418.19;8318679;28;20227;-75
2022/11/24 07:10:57;;;;;;;10.70;3.03;;;;;;;10.43;65.37;97415.53;8318358;28;20226;-75
2022/11/24 07:15:00;;;;;;;14.03;2.97;;;;;;;10.46;65.34;97417.97;8318632;28;20234;-76
2022/11/24 07:19:04;;;;;;;9.53;2.57;;;;;;;10.37;65.61;97422.69;8318569;28;20233;-76
2022/11/24 07:23:07;;;;;;;10.53;2.80;;;;;;;10.36;64.81;97422.78;8318014;28;20280;-76
2022/11/24 07:27:10;;;;;;;9.93;2.23;;;;;;;10.47;64.92;97436.00;8318133;28;20243;-77
2022/11/24 07:31:14;;;;;;;8.90;2.20;;;;;;;10.41;64.32;97438.88;8318154;28;20699;-76
2022/11/24 07:35:19;;;;;;;9.63;2.27;;;;;;;10.59;63.94;97442.28;8317968;28;20290;-76
2022/11/24 07:39:21;;;;;;;10.23;2.20;;;;;;;10.80;63.27;97449.84;8317742;28;20222;-76
2022/11/24 07:43:24;;;;;;;9.13;2.00;;;;;;;11.38;61.06;97454.41;8317612;28;20514;-75
2022/11/24 07:47:27;;;;;;;9.83;2.50;;;;;;;11.98;59.37;97455.41;8317674;28;20234;-75
2022/11/24 07:51:31;;;;;;;6.93;1.93;;;;;;;12.91;57.28;97464.56;8317466;28;20296;-76
2022/11/24 07:55:34;;;;;;;6.93;2.20;;;;;;;13.15;56.62;97463.94;8317165;28;20226;-76
2022/11/24 07:59:36;;;;;;;6.20;1.87;;;;;;;13.67;55.79;97456.28;8317432;28;20229;-76
2022/11/24 08:03:39;;;;;;;7.90;1.83;;;;;;;13.83;54.29;97458.72;8316987;28;20226;-76
2022/11/24 08:07:44;;;;;;;6.73;2.00;;;;;;;13.29;55.52;97463.94;8316937;28;20226;-76
2022/11/24 08:11:47;;;;;;;6.87;2.37;;;;;;;13.10;55.95;97456.44;8316622;28;20235;-76
2022/11/24 08:15:49;;;;;;;5.67;2.10;;;;;;;12.68;57.04;97468.56;8316252;28;20289;-76
2022/11/24 08:19:52;;;;;;;6.33;1.70;;;;;;;12.62;57.13;97463.72;8316122;28;20234;-74
2022/11/24 08:23:57;;;;;;;6.17;1.60;;;;;;;13.30;56.05;97468.22;8316135;28;20226;-76
2022/11/24 08:28:00;;;;;;;10.73;2.27;;;;;;;12.88;57.55;97469.94;8316081;28;20238;-76
2022/11/24 08:32:02;;;;;;;4.70;1.80;;;;;;;12.83;57.53;97475.44;8315988;28;20563;-76
2022/11/24 08:36:07;;;;;;;8.77;1.87;;;;;;;12.71;57.40;97463.16;8315832;28;20237;-77
2022/11/24 08:40:13;;;;;;;8.97;2.30;;;;;;;12.77;57.09;97465.38;8315681;28;20228;-76
2022/11/24 08:44:17;;;;;;;6.63;1.90;;;;;;;12.68;58.24;97469.41;8315452;28;20251;-75
2022/11/24 08:48:19;;;;;;;8.90;2.43;;;;;;;12.62;57.51;97474.13;8315426;28;20232;-75
2022/11/24 08:52:22;;;;;;;5.73;2.10;;;;;;;12.34;58.24;97478.38;8315236;28;20230;-75
2022/11/24 08:56:26;;;;;;;10.00;2.37;;;;;;;12.09;58.58;97474.63;8315229;28;20307;-75
2022/11/24 09:00:29;;;;;;;7.03;1.97;;;;;;;11.97;59.50;97477.91;8315155;28;20273;-76
2022/11/24 09:04:32;;;;;;;5.23;1.87;;;;;;;13.19;74.24;97476.66;8315293;28;20416;-81
2022/11/24 09:08:36;;;;;;;8.23;2.30;;;;;;;13.16;65.87;97487.25;8315711;28;20241;-79
2022/11/24 09:12:40;;;;;;;7.30;2.20;;;;;;;12.90;61.34;97494.88;8315058;28;20223;-79
2022/11/24 09:16:43;;;;;;;5.90;1.97;;;;;;;13.43;60.20;97502.09;8314952;28;20236;-79
2022/11/24 09:20:45;;;;;;;5.40;1.97;;;;;;;13.42;57.95;97506.47;8314763;28;20520;-76
2022/11/24 09:24:48;;;;;;;8.37;2.10;;;;;;;12.50;58.84;97515.47;8314534;28;20233;-74
2022/11/24 09:28:54;;;;;;;7.00;2.37;;;;;;;12.00;59.77;97513.25;8314648;28;20231;-74
2022/11/24 09:32:57;;;;;;;4.93;1.80;;;;;;;11.93;60.22;97517.94;8314295;28;20329;-74
2022/11/24 09:37:01;;;;;;;6.10;1.60;;;;;;;11.92;60.43;97522.31;8314491;28;20237;-74
2022/11/24 09:41:27;;;;;;;7.97;2.07;;;;;;;11.72;61.18;97518.19;8314462;28;20230;-73
2022/11/24 09:45:42;;;;;;;6.87;2.27;;;;;;;11.42;61.13;97486.19;8314238;28;20226;-73
2022/11/24 09:50:10;;;;;;;7.60;1.77;;;;;;;11.67;61.25;97521.97;8313850;28;20569;-73
2022/11/24 09:54:16;;;;;;;6.97;1.80;;;;;;;11.62;62.65;97524.00;8314111;28;20526;-74
2022/11/24 09:58:32;;;;;;;7.23;1.87;;;;;;;11.53;62.51;97528.75;8314068;28;20414;-73
2022/11/24 10:02:36;;;;;;;4.73;1.53;;;;;;;11.33;63.41;97526.44;8317465;28;20230;-72
2022/11/24 10:06:43;;;;;;;5.67;1.53;;;;;;;11.47;63.80;97531.69;8320793;28;20518;-75
2022/11/24 10:10:52;;;;;;;4.60;1.57;;;;;;;11.30;64.14;97536.97;8320402;28;20468;-73
2022/11/24 10:15:21;;;;;;;5.57;1.67;;;;;;;11.28;64.23;97538.81;8320117;28;20243;-73
2022/11/24 10:19:34;;;;;;;6.73;2.00;;;;;;;11.33;64.41;97542.00;8312679;28;20237;-75
2022/11/24 10:23:54;;;;;;;5.90;1.80;;;;;;;11.14;64.63;97548.16;8320297;28;20534;-73
2022/11/24 10:27:59;;;;;;;4.87;1.90;;;;;;;11.22;64.73;97539.97;8319842;28;20246;-73
2022/11/24 10:32:04;;;;;;;3.40;1.20;;;;;;;11.28;64.98;97544.00;8320052;28;20415;-74
2022/11/24 10:36:14;;;;;;;3.50;1.20;;;;;;;11.23;65.11;97540.78;8319662;28;20237;-74
2022/11/24 10:40:24;;;;;;;5.60;1.30;;;;;;;11.20;65.34;97541.81;8319537;28;20269;-73
2022/11/24 10:44:58;;;;;;;4.37;1.30;;;;;;;11.34;65.28;97546.25;8319640;28;20222;-75
2022/11/24 10:49:04;;;;;;;2.87;1.47;;;;;;;11.28;65.49;97550.00;8319344;28;20285;-74
2022/11/24 10:53:14;;;;;;;4.77;1.57;;;;;;;11.35;65.23;97545.34;8319048;28;20405;-74
2022/11/24 10:57:27;;;;;;;5.47;1.50;;;;;;;11.33;65.38;97544.59;8319261;28;20595;-73
2022/11/24 11:01:32;;;;;;;3.27;1.30;;;;;;;11.47;65.04;97546.41;8319415;28;20226;-75
2022/11/24 11:05:40;;;;;;;3.73;1.47;;;;;;;11.34;65.96;97541.06;8319292;28;20406;-74
2022/11/24 11:09:45;;;;;;;11.03;7.73;;;;;;;11.47;66.00;97554.19;8318340;28;20273;-74
2022/11/24 11:13:54;;;;;;;4.40;3.20;;;;;;;11.43;65.69;97555.28;8318160;28;20226;-74
2022/11/24 11:18:05;;;;;;;5.77;3.23;;;;;;;11.66;65.12;97560.03;8318523;28;20238;-74
2022/11/24 11:22:14;;;;;;;5.40;3.17;;;;;;;11.35;65.17;97553.13;8318582;28;20428;-74
2022/11/24 11:26:27;;;;;;;9.40;6.37;;;;;;;11.60;65.23;97552.59;8318189;28;20744;-73
2022/11/24 11:30:29;;;;;;;3.93;1.50;;;;;;;11.91;64.37;97558.72;8318390;28;20249;-74
2022/11/24 11:34:54;;;;;;;6.60;2.43;;;;;;;11.85;63.18;97500.19;8317478;28;20253;-72
2022/11/24 11:38:57;;;;;;;5.73;3.70;;;;;;;11.96;63.84;97559.28;8317874;28;20542;-73
2022/11/24 11:43:04;;;;;;;5.33;3.30;;;;;;;11.96;63.82;97561.91;8317503;28;20235;-73
2022/11/24 11:47:20;;;;;;;6.70;4.03;;;;;;;11.73;63.59;97565.75;8317696;28;20503;-73
2022/11/24 11:51:34;;;;;;;10.63;5.97;;;;;;;11.77;63.62;97558.63;8316988;28;20437;-74
2022/11/24 11:55:44;;;;;;;11.77;7.33;;;;;;;11.66;64.26;97561.81;8317333;28;20353;-74
2022/11/24 12:00:04;;;;;;;5.87;2.90;;;;;;;11.76;63.11;97567.31;8317370;28;20234;-75
2022/11/24 12:04:15;;;;;;;7.07;3.70;;;;;;;11.91;63.58;97567.31;8317168;28;20226;-75
2022/11/24 12:08:28;;;;;;;9.07;5.57;;;;;;;12.17;62.69;97566.78;8316825;28;20343;-73
2022/11/24 12:12:52;;;;;;;4.80;2.10;;;;;;;12.23;62.58;97580.25;8316702;28;20313;-74
2022/11/24 12:17:01;;;;;;;5.67;2.07;;;;;;;12.24;62.13;97578.47;8315838;28;20234;-73
2022/11/24 12:21:13;;;;;;;5.25;2.38;;;;;;;12.62;62.08;97588.41;8316420;28;20408;-73
2022/11/24 12:25:23;;;;;;;4.20;1.90;;;;;;;12.57;60.79;97583.50;8315427;28;20442;-74
2022/11/24 12:29:42;;;;;;;4.93;1.60;;;;;;;12.61;59.80;97584.16;8316297;28;20246;-75
2022/11/24 12:34:05;;;;;;;5.30;1.80;;;;;;;12.31;60.54;97595.38;8315959;28;20240;-74
2022/11/24 12:38:22;;;;;;;4.23;1.93;;;;;;;12.22;61.03;97598.50;8315664;28;20234;-75
2022/11/24 12:42:35;;;;;;;29.90;16.13;;;;;;;12.26;61.36;97600.00;8315859;28;20231;-74
2022/11/24 12:46:43;;;;;;;12.20;5.20;;;;;;;11.98;60.91;97598.97;8315574;28;20227;-74
2022/11/24 12:50:52;;;;;;;15.43;7.63;;;;;;;11.87;61.87;97602.13;8315679;28;20530;-75
2022/11/24 12:54:55;;;;;;;33.27;20.17;;;;;;;11.83;61.97;97611.00;8314835;28;20232;-74
2022/11/24 12:59:09;;;;;;;15.50;8.70;;;;;;;11.92;61.39;97618.31;8315307;28;20254;-73
2022/11/24 13:03:22;;;;;;;14.67;8.20;;;;;;;11.92;60.65;97605.34;8315780;28;20235;-75
2022/11/24 13:07:38;;;;;;;7.43;3.83;;;;;;;12.32;59.49;97613.47;8315179;28;20258;-76
2022/11/24 13:11:42;;;;;;;7.77;2.07;;;;;;;12.45;58.67;97611.03;8314982;28;20234;-75
2022/11/24 13:16:11;;;;;;;6.77;2.03;;;;;;;12.51;57.48;97615.84;8314945;28;20530;-74
2022/11/24 13:20:39;;;;;;;13.23;7.00;;;;;;;12.32;58.26;97629.06;8314461;28;20292;-74
2022/11/24 13:24:44;;;;;;;8.10;3.30;;;;;;;12.36;58.28;97634.09;8314692;28;20334;-74
2022/11/24 13:28:59;;;;;;;7.43;2.30;;;;;;;12.23;57.75;97633.94;8314770;28;20232;-74
2022/11/24 13:33:38;;;;;;;7.63;2.27;;;;;;;12.23;58.72;97637.34;8314316;28;20418;-74
2022/11/24 13:37:52;;;;;;;8.33;1.87;;;;;;;12.01;59.53;97639.47;8314316;28;20222;-74
2022/11/24 13:42:05;;;;;;;6.13;1.83;;;;;;;11.66;59.55;97616.28;8313721;28;20427;-73
2022/11/24 13:46:10;;;;;;;7.03;1.97;;;;;;;12.03;59.80;97654.06;8313791;28;20429;-74
2022/11/24 13:50:46;;;;;;;8.87;2.37;;;;;;;11.81;60.14;97650.94;8314252;28;20293;-74
2022/11/24 13:54:48;;;;;;;5.23;1.60;;;;;;;11.86;59.65;97656.69;8313844;28;20281;-74
2022/11/24 13:58:55;;;;;;;5.03;1.50;;;;;;;11.82;60.80;97658.63;8313597;28;20238;-73
2022/11/24 14:03:00;;;;;;;7.33;1.80;;;;;;;11.61;60.34;97646.81;8313560;28;20226;-74
2022/11/24 14:07:05;;;;;;;5.17;1.43;;;;;;;11.53;60.56;97671.38;8313675;28;20302;-74
2022/11/24 14:11:13;;;;;;;4.83;1.70;;;;;;;11.61;60.47;97672.75;8313587;28;20245;-73
2022/11/24 14:15:28;;;;;;;5.93;1.53;;;;;;;11.58;61.13;97675.50;8313597;28;20234;-74
2022/11/24 14:19:31;;;;;;;6.87;1.87;;;;;;;11.37;62.17;97683.50;8313845;28;20226;-74
2022/11/24 14:23:34;;;;;;;6.43;2.00;;;;;;;11.61;61.67;97680.53;8313569;28;20249;-74
2022/11/24 14:27:38;;;;;;;5.07;1.95;;;;;;;11.79;61.43;97674.34;8313145;28;20425;-75
2022/11/24 14:31:42;;;;;;;7.70;2.00;;;;;;;11.75;61.39;97678.03;8313562;28;20227;-77
2022/11/24 14:35:46;;;;;;;5.60;1.90;;;;;;;11.78;61.53;97690.00;8313644;28;20238;-75
2022/11/24 14:39:49;;;;;;;3.93;1.70;;;;;;;11.60;61.70;97691.81;8313331;28;20445;-74
2022/11/24 14:44:10;;;;;;;5.37;3.00;;;;;;;11.70;61.12;97693.00;8312857;28;20222;-73
2022/11/24 14:48:16;;;;;;;8.97;3.70;;;;;;;11.75;61.13;97706.56;8316039;28;20522;-76
2022/11/24 14:52:21;;;;;;;7.37;2.47;;;;;;;11.77;60.33;97711.69;8319344;28;20502;-74
2022/11/24 14:56:26;;;;;;;8.57;2.27;;;;;;;11.64;60.94;97708.91;8319111;28;20233;-75
2022/11/24 15:00:31;;;;;;;8.60;3.90;;;;;;;11.67;60.94;97713.91;8319309;28;20235;-77
2022/11/24 15:04:59;;;;;;;10.07;4.03;;;;;;;11.66;60.00;97714.84;8319145;28;20249;-75
2022/11/24 15:09:05;;;;;;;8.13;2.40;;;;;;;11.63;59.62;97721.03;8318289;28;20231;-74
2022/11/24 15:13:16;;;;;;;5.73;1.80;;;;;;;11.64;59.64;97722.69;8318746;28;20230;-74
2022/11/24 15:17:20;;;;;;;7.30;2.07;;;;;;;11.56;60.12;97724.88;8318472;28;20234;-74
2022/11/24 15:21:33;;;;;;;5.47;2.30;;;;;;;11.46;59.84;97718.47;8318374;28;20292;-74
2022/11/24 15:25:36;;;;;;;10.80;4.13;;;;;;;11.33;60.83;97733.84;8318019;28;20254;-75
2022/11/24 15:29:39;;;;;;;6.87;2.80;;;;;;;11.37;60.23;97745.72;8318012;28;20222;-74
2022/11/24 15:33:42;;;;;;;10.47;5.10;;;;;;;11.29;60.72;97737.47;8318060;28;20238;-75
2022/11/24 15:37:46;;;;;;;11.83;6.27;;;;;;;11.32;60.67;97753.72;8318161;28;20549;-75
2022/11/24 15:41:49;;;;;;;12.47;5.90;;;;;;;11.21;60.98;97748.22;8317774;28;20281;-75
2022/11/24 15:45:51;;;;;;;8.63;4.37;;;;;;;11.03;61.07;97759.53;8317087;28;20226;-74
2022/11/24 15:49:54;;;;;;;9.07;3.30;;;;;;;11.18;60.69;97758.78;8317254;28;20308;-74
2022/11/24 15:53:59;;;;;;;7.90;4.03;;;;;;;11.14;60.65;97757.25;8317231;28;20226;-74
2022/11/24 15:58:03;;;;;;;9.87;6.50;;;;;;;11.09;60.52;97759.22;8316625;28;20243;-74
2022/11/24 16:02:05;;;;;;;9.50;6.03;;;;;;;11.04;60.62;97761.19;8316862;28;20226;-74
2022/11/24 16:06:11;;;;;;;9.73;5.97;;;;;;;10.98;60.73;97758.91;8317144;28;20237;-73
2022/11/24 16:10:23;;;;;;;9.07;6.10;;;;;;;10.81;61.04;97768.34;8316759;28;20417;-73
2022/11/24 16:14:25;;;;;;;10.70;7.50;;;;;;;10.80;60.83;97777.03;8316616;28;20235;-73
2022/11/24 16:18:30;;;;;;;10.70;7.57;;;;;;;10.73;60.89;97776.47;8316427;28;20237;-73
2022/11/24 16:22:33;;;;;;;13.27;8.23;;;;;;;10.73;61.27;97786.84;8316441;28;20230;-74
2022/11/24 16:26:37;;;;;;;10.43;7.63;;;;;;;10.75;61.39;97792.78;8316558;28;20218;-73
2022/11/24 16:30:40;;;;;;;14.77;8.37;;;;;;;10.78;60.84;97790.97;8316460;28;20234;-74
2022/11/24 16:34:43;;;;;;;18.40;10.90;;;;;;;10.79;61.28;97800.41;8316204;28;20226;-73
2022/11/24 16:38:45;;;;;;;27.20;21.50;;;;;;;10.84;60.83;97795.88;8316196;28;20240;-74
2022/11/24 16:42:49;;;;;;;26.60;20.03;;;;;;;10.78;61.02;97796.16;8315944;28;20230;-73
2022/11/24 16:46:52;;;;;;;17.70;11.80;;;;;;;10.76;60.55;97791.06;8315530;28;20533;-73
2022/11/24 16:50:55;;;;;;;22.37;15.03;;;;;;;10.69;60.89;97794.84;8315709;28;20253;-74
2022/11/24 16:54:59;;;;;;;19.83;12.63;;;;;;;10.74;61.68;97795.47;8315217;28;20558;-75
2022/11/24 16:59:04;;;;;;;13.00;7.83;;;;;;;10.12;61.28;97732.75;8315478;28;20242;-76
2022/11/24 17:03:06;;;;;;;12.80;5.90;;;;;;;10.57;61.03;97809.22;8315294;28;20236;-75
2022/11/24 17:07:09;;;;;;;9.87;3.87;;;;;;;10.63;61.07;97800.31;8315081;28;20281;-75
2022/11/24 17:11:14;;;;;;;9.40;5.23;;;;;;;10.58;60.84;97797.94;8314712;28;20581;-77
2022/11/24 17:15:18;;;;;;;12.77;4.80;;;;;;;10.67;60.96;97809.63;8315130;28;20285;-76
2022/11/24 17:19:41;;;;;;;13.17;5.10;;;;;;;10.65;60.70;97811.44;8315042;28;20534;-74
2022/11/24 17:23:44;;;;;;;9.67;3.70;;;;;;;10.63;60.59;97813.25;8314808;28;20227;-75
2022/11/24 17:27:46;;;;;;;8.07;3.37;;;;;;;10.55;60.99;97811.88;8314781;28;20237;-76
2022/11/24 17:31:51;;;;;;;12.47;6.50;;;;;;;10.50;60.78;97813.00;8314815;28;20231;-75
2022/11/24 17:35:53;;;;;;;22.80;11.90;;;;;;;10.38;60.88;97814.41;8314146;28;20230;-77
2022/11/24 17:39:56;;;;;;;17.80;8.53;;;;;;;10.33;61.27;97822.34;8314215;28;20281;-76
2022/11/24 17:44:19;;;;;;;7.13;3.53;;;;;;;10.39;61.08;97834.19;8314260;28;20289;-76
2022/11/24 17:48:23;;;;;;;7.70;3.43;;;;;;;10.45;61.17;97825.31;8314403;28;20264;-77
2022/11/24 17:52:28;;;;;;;9.67;3.60;;;;;;;10.36;61.13;97822.22;8314213;28;20549;-76
2022/11/24 17:56:31;;;;;;;10.33;4.47;;;;;;;10.36;61.26;97830.00;8313777;28;20222;-75
2022/11/24 18:00:34;;;;;;;12.77;4.50;;;;;;;10.27;61.24;97835.56;8314026;28;20228;-75
2022/11/24 18:04:38;;;;;;;14.47;4.50;;;;;;;10.23;61.06;97826.25;8313985;28;20518;-76
2022/11/24 18:08:43;;;;;;;16.13;4.30;;;;;;;10.19;61.04;97835.06;8313607;28;20414;-75
2022/11/24 18:12:45;;;;;;;16.13;3.90;;;;;;;10.21;61.49;97841.00;8313767;28;20297;-77
2022/11/24 18:16:48;;;;;;;11.43;3.57;;;;;;;10.14;61.37;97839.59;8313725;28;20529;-75
2022/11/24 18:20:54;;;;;;;10.97;3.17;;;;;;;10.18;61.02;97846.31;8313564;28;20450;-76
2022/11/24 18:24:57;;;;;;;16.87;4.80;;;;;;;10.18;61.34;97846.31;8318824;28;20226;-74
2022/11/24 18:29:00;;;;;;;10.17;4.13;;;;;;;10.08;61.01;97847.66;8319772;28;20550;-73
2022/11/24 18:33:02;;;;;;;12.43;5.17;;;;;;;10.08;60.97;97848.47;8319803;28;20465;-74
2022/11/24 18:37:07;;;;;;;14.80;7.03;;;;;;;10.07;61.15;97856.31;8319571;28;20240;-73
2022/11/24 18:41:11;;;;;;;16.83;8.47;;;;;;;10.03;60.70;97867.69;8319544;28;20231;-74
2022/11/24 18:45:13;;;;;;;19.37;9.93;;;;;;;9.91;60.81;97866.50;8319392;28;20280;-74
2022/11/24 18:49:16;;;;;;;25.10;13.87;;;;;;;9.92;61.00;97866.44;8319459;28;20267;-75
2022/11/24 18:53:21;;;;;;;31.70;15.93;;;;;;;9.88;60.63;97874.38;8319255;28;20249;-74
2022/11/24 18:57:24;;;;;;;27.80;15.40;;;;;;;9.80;61.09;97866.94;8318969;28;20229;-75
2022/11/24 19:01:28;;;;;;;23.47;13.17;;;;;;;9.75;61.24;97871.50;8319158;28;20303;-74
2022/11/24 19:05:31;;;;;;;15.17;8.30;;;;;;;9.76;61.10;97867.97;8318799;28;20261;-75
2022/11/24 19:09:36;;;;;;;17.90;9.80;;;;;;;9.78;60.78;97867.00;8318650;28;20233;-74
2022/11/24 19:13:39;;;;;;;18.90;12.07;;;;;;;9.81;60.95;97873.81;8318603;28;20227;-75
2022/11/24 19:17:42;;;;;;;15.10;9.60;;;;;;;9.84;61.13;97876.25;8318474;28;20224;-74
2022/11/24 19:21:48;;;;;;;11.77;8.30;;;;;;;9.73;61.54;97862.97;8318428;28;20228;-74